sensor_id;sensor_type;location;lat;lon;timestamp;pressure;altitude;pressure_sealevel;temperature;humidity
77572;BME280;67214;47.454;18.966;2023-01-25T00:00:44;101793.70;;;-1.21;85.79
77572;BME280;67214;47.454;18.966;2023-01-25T00:03:12;101791.55;;;-1.25;85.62
77572;BME280;67214;47.454;18.966;2023-01-25T00:05:39;101791.58;;;-1.28;85.54
77572;BME280;67214;47.454;18.966;2023-01-25T00:08:07;101799.84;;;-1.31;85.51
77572;BME280;67214;47.454;18.966;2023-01-25T00:10:34;101798.11;;;-1.34;85.44
77572;BME280;67214;47.454;18.966;2023-01-25T00:13:01;101810.25;;;-1.34;85.54
77572;BME280;67214;47.454;18.966;2023-01-25T00:15:29;101794.69;;;-1.39;85.37
77572;BME280;67214;47.454;18.966;2023-01-25T00:17:57;101805.09;;;-1.41;85.47
77572;BME280;67214;47.454;18.966;2023-01-25T00:20:25;101810.29;;;-1.42;85.46
77572;BME280;67214;47.454;18.966;2023-01-25T00:22:52;101813.35;;;-1.46;85.36
77572;BME280;67214;47.454;18.966;2023-01-25T00:25:20;101806.87;;;-1.47;85.59
77572;BME280;67214;47.454;18.966;2023-01-25T00:27:47;101811.23;;;-1.52;85.60
77572;BME280;67214;47.454;18.966;2023-01-25T00:30:15;101810.34;;;-1.50;85.26
77572;BME280;67214;47.454;18.966;2023-01-25T00:33:00;101817.71;;;-1.48;85.60
77572;BME280;67214;47.454;18.966;2023-01-25T00:35:30;101815.50;;;-1.41;85.39
77572;BME280;67214;47.454;18.966;2023-01-25T00:38:01;101811.16;;;-1.40;86.22
77572;BME280;67214;47.454;18.966;2023-01-25T00:40:30;101818.09;;;-1.42;86.39
77572;BME280;67214;47.454;18.966;2023-01-25T00:42:58;101815.92;;;-1.43;86.34
77572;BME280;67214;47.454;18.966;2023-01-25T00:45:26;101812.86;;;-1.31;85.59
77572;BME280;67214;47.454;18.966;2023-01-25T00:47:54;101811.58;;;-1.37;85.54
77572;BME280;67214;47.454;18.966;2023-01-25T00:50:22;101814.22;;;-1.47;85.33
77572;BME280;67214;47.454;18.966;2023-01-25T00:52:49;101815.53;;;-1.50;85.57
77572;BME280;67214;47.454;18.966;2023-01-25T00:55:17;101814.67;;;-1.50;85.74
77572;BME280;67214;47.454;18.966;2023-01-25T00:57:44;101815.12;;;-1.52;85.46
77572;BME280;67214;47.454;18.966;2023-01-25T01:00:12;101814.67;;;-1.50;86.10
77572;BME280;67214;47.454;18.966;2023-01-25T01:02:40;101823.31;;;-1.39;86.20
77572;BME280;67214;47.454;18.966;2023-01-25T01:05:08;101822.83;;;-1.34;85.87
77572;BME280;67214;47.454;18.966;2023-01-25T01:07:35;101823.74;;;-1.39;85.73
77572;BME280;67214;47.454;18.966;2023-01-25T01:10:03;101802.53;;;-1.50;85.72
77572;BME280;67214;47.454;18.966;2023-01-25T01:12:31;101814.69;;;-1.53;85.65
77572;BME280;67214;47.454;18.966;2023-01-25T01:14:58;101818.16;;;-1.54;85.79
77572;BME280;67214;47.454;18.966;2023-01-25T01:17:26;101822.97;;;-1.60;85.51
77572;BME280;67214;47.454;18.966;2023-01-25T01:19:53;101825.12;;;-1.61;85.43
77572;BME280;67214;47.454;18.966;2023-01-25T01:22:21;101822.52;;;-1.56;85.78
77572;BME280;67214;47.454;18.966;2023-01-25T01:24:48;101825.98;;;-1.57;85.42
77572;BME280;67214;47.454;18.966;2023-01-25T01:27:15;101821.23;;;-1.59;85.63
77572;BME280;67214;47.454;18.966;2023-01-25T01:29:43;101833.35;;;-1.57;85.83
77572;BME280;67214;47.454;18.966;2023-01-25T01:32:10;101832.05;;;-1.55;86.00
77572;BME280;67214;47.454;18.966;2023-01-25T01:34:38;101832.91;;;-1.58;86.04
77572;BME280;67214;47.454;18.966;2023-01-25T01:37:05;101832.09;;;-1.64;85.57
77572;BME280;67214;47.454;18.966;2023-01-25T01:39:33;101828.18;;;-1.66;85.61
77572;BME280;67214;47.454;18.966;2023-01-25T01:42:00;101832.11;;;-1.67;85.75
77572;BME280;67214;47.454;18.966;2023-01-25T01:44:46;101831.23;;;-1.69;85.56
77572;BME280;67214;47.454;18.966;2023-01-25T01:47:26;101825.61;;;-1.73;85.73
77572;BME280;67214;47.454;18.966;2023-01-25T01:50:07;101834.27;;;-1.70;86.06
77572;BME280;67214;47.454;18.966;2023-01-25T01:52:35;101833.00;;;-1.76;85.59
77572;BME280;67214;47.454;18.966;2023-01-25T01:55:07;101827.37;;;-1.75;85.79
77572;BME280;67214;47.454;18.966;2023-01-25T01:57:42;101817.36;;;-1.70;86.30
77572;BME280;67214;47.454;18.966;2023-01-25T02:00:18;101819.03;;;-1.52;85.85
77572;BME280;67214;47.454;18.966;2023-01-25T02:02:48;101824.72;;;-1.65;85.92
77572;BME280;67214;47.454;18.966;2023-01-25T02:05:25;101825.16;;;-1.70;85.49
77572;BME280;67214;47.454;18.966;2023-01-25T02:07:54;101823.47;;;-1.75;85.52
77572;BME280;67214;47.454;18.966;2023-01-25T02:10:24;101825.21;;;-1.80;85.74
77572;BME280;67214;47.454;18.966;2023-01-25T02:12:54;101818.27;;;-1.77;85.74
77572;BME280;67214;47.454;18.966;2023-01-25T02:15:22;101811.75;;;-1.78;85.79
77572;BME280;67214;47.454;18.966;2023-01-25T02:17:50;101816.95;;;-1.78;86.09
77572;BME280;67214;47.454;18.966;2023-01-25T02:20:28;101808.28;;;-1.79;86.01
77572;BME280;67214;47.454;18.966;2023-01-25T02:23:05;101803.96;;;-1.77;85.85
77572;BME280;67214;47.454;18.966;2023-01-25T02:25:31;101809.14;;;-1.72;85.58
77572;BME280;67214;47.454;18.966;2023-01-25T02:28:03;101801.41;;;-1.89;85.76
77572;BME280;67214;47.454;18.966;2023-01-25T02:30:29;101802.63;;;-1.68;85.30
77572;BME280;67214;47.454;18.966;2023-01-25T02:32:57;101803.13;;;-1.91;85.12
77572;BME280;67214;47.454;18.966;2023-01-25T02:35:42;101804.80;;;-1.69;84.36
77572;BME280;67214;47.454;18.966;2023-01-25T02:38:12;101802.69;;;-1.86;84.70
77572;BME280;67214;47.454;18.966;2023-01-25T02:40:48;101794.80;;;-1.65;83.88
77572;BME280;67214;47.454;18.966;2023-01-25T02:43:17;101798.39;;;-1.98;84.56
77572;BME280;67214;47.454;18.966;2023-01-25T02:45:46;101794.50;;;-2.02;85.03
77572;BME280;67214;47.454;18.966;2023-01-25T02:48:15;101781.55;;;-2.13;85.07
77572;BME280;67214;47.454;18.966;2023-01-25T02:50:42;101781.47;;;-1.90;85.10
77572;BME280;67214;47.454;18.966;2023-01-25T02:53:10;101770.68;;;-2.02;85.18
77572;BME280;67214;47.454;18.966;2023-01-25T02:55:37;101773.27;;;-1.97;85.11
77572;BME280;67214;47.454;18.966;2023-01-25T02:58:05;101771.12;;;-2.01;85.07
77572;BME280;67214;47.454;18.966;2023-01-25T03:00:32;101765.94;;;-2.11;85.20
77572;BME280;67214;47.454;18.966;2023-01-25T03:03:00;101769.00;;;-2.18;85.38
77572;BME280;67214;47.454;18.966;2023-01-25T03:05:27;101775.50;;;-2.22;85.87
77572;BME280;67214;47.454;18.966;2023-01-25T03:07:55;101753.87;;;-2.32;86.12
77572;BME280;67214;47.454;18.966;2023-01-25T03:10:22;101767.75;;;-2.33;86.22
77572;BME280;67214;47.454;18.966;2023-01-25T03:12:50;101768.59;;;-2.31;86.33
77572;BME280;67214;47.454;18.966;2023-01-25T03:15:17;101769.05;;;-2.33;86.35
77572;BME280;67214;47.454;18.966;2023-01-25T03:17:44;101765.10;;;-2.24;86.61
77572;BME280;67214;47.454;18.966;2023-01-25T03:20:12;101762.52;;;-2.21;86.62
77572;BME280;67214;47.454;18.966;2023-01-25T03:22:39;101766.41;;;-2.27;86.47
77572;BME280;67214;47.454;18.966;2023-01-25T03:25:07;101758.66;;;-2.33;86.44
77572;BME280;67214;47.454;18.966;2023-01-25T03:27:35;101761.25;;;-2.28;86.53
77572;BME280;67214;47.454;18.966;2023-01-25T03:30:03;101763.41;;;-2.34;86.51
77572;BME280;67214;47.454;18.966;2023-01-25T03:32:31;101762.09;;;-2.26;86.68
77572;BME280;67214;47.454;18.966;2023-01-25T03:34:58;101756.45;;;-2.23;86.33
77572;BME280;67214;47.454;18.966;2023-01-25T03:37:26;101761.67;;;-2.29;86.38
77572;BME280;67214;47.454;18.966;2023-01-25T03:39:56;101758.20;;;-2.36;86.62
77572;BME280;67214;47.454;18.966;2023-01-25T03:42:23;101763.86;;;-2.38;86.74
77572;BME280;67214;47.454;18.966;2023-01-25T03:44:51;101764.70;;;-2.40;86.48
77572;BME280;67214;47.454;18.966;2023-01-25T03:47:18;101766.43;;;-2.36;86.54
77572;BME280;67214;47.454;18.966;2023-01-25T03:49:46;101761.69;;;-2.33;86.38
77572;BME280;67214;47.454;18.966;2023-01-25T03:52:13;101754.33;;;-2.32;86.12
77572;BME280;67214;47.454;18.966;2023-01-25T03:54:41;101759.97;;;-2.47;86.46
77572;BME280;67214;47.454;18.966;2023-01-25T03:57:08;101759.53;;;-2.43;86.62
77572;BME280;67214;47.454;18.966;2023-01-25T03:59:36;101759.52;;;-2.32;86.45
77572;BME280;67214;47.454;18.966;2023-01-25T04:02:03;101753.91;;;-2.37;86.41
77572;BME280;67214;47.454;18.966;2023-01-25T04:04:31;101747.39;;;-2.40;86.48
77572;BME280;67214;47.454;18.966;2023-01-25T04:06:58;101750.88;;;-2.42;86.60
77572;BME280;67214;47.454;18.966;2023-01-25T04:09:26;101750.47;;;-2.49;86.89
77572;BME280;67214;47.454;18.966;2023-01-25T04:11:53;101758.25;;;-2.49;86.86
77572;BME280;67214;47.454;18.966;2023-01-25T04:14:21;101762.55;;;-2.48;86.86
77572;BME280;67214;47.454;18.966;2023-01-25T04:16:48;101753.03;;;-2.43;86.64
77572;BME280;67214;47.454;18.966;2023-01-25T04:19:15;101762.98;;;-2.38;86.43
77572;BME280;67214;47.454;18.966;2023-01-25T04:21:43;101758.23;;;-2.42;86.28
77572;BME280;67214;47.454;18.966;2023-01-25T04:24:10;101760.84;;;-2.51;86.18
77572;BME280;67214;47.454;18.966;2023-01-25T04:26:38;101751.33;;;-2.53;86.24
77572;BME280;67214;47.454;18.966;2023-01-25T04:29:05;101753.91;;;-2.56;86.35
77572;BME280;67214;47.454;18.966;2023-01-25T04:31:33;101765.62;;;-2.49;86.18
77572;BME280;67214;47.454;18.966;2023-01-25T04:34:00;101769.42;;;-2.14;85.20
77572;BME280;67214;47.454;18.966;2023-01-25T04:36:27;101766.42;;;-2.21;85.47
77572;BME280;67214;47.454;18.966;2023-01-25T04:38:55;101772.02;;;-2.14;85.68
77572;BME280;67214;47.454;18.966;2023-01-25T04:41:22;101776.30;;;-2.04;85.55
77572;BME280;67214;47.454;18.966;2023-01-25T04:43:51;101762.41;;;-1.87;85.30
77572;BME280;67214;47.454;18.966;2023-01-25T04:46:19;101774.95;;;-1.87;84.68
77572;BME280;67214;47.454;18.966;2023-01-25T04:48:46;101768.85;;;-1.78;84.78
77572;BME280;67214;47.454;18.966;2023-01-25T04:51:14;101756.27;;;-1.73;84.14
77572;BME280;67214;47.454;18.966;2023-01-25T04:53:41;101773.15;;;-1.70;84.08
77572;BME280;67214;47.454;18.966;2023-01-25T04:56:09;101763.19;;;-1.67;84.12
77572;BME280;67214;47.454;18.966;2023-01-25T04:58:37;101759.27;;;-1.66;83.98
77572;BME280;67214;47.454;18.966;2023-01-25T05:01:04;101763.20;;;-1.72;83.79
77572;BME280;67214;47.454;18.966;2023-01-25T05:03:32;101766.96;;;-1.43;82.32
77572;BME280;67214;47.454;18.966;2023-01-25T05:06:00;101766.59;;;-1.56;82.89
77572;BME280;67214;47.454;18.966;2023-01-25T05:08:27;101764.03;;;-1.64;83.31
77572;BME280;67214;47.454;18.966;2023-01-25T05:10:55;101754.94;;;-1.64;83.58
77572;BME280;67214;47.454;18.966;2023-01-25T05:13:22;101770.02;;;-1.48;83.40
77572;BME280;67214;47.454;18.966;2023-01-25T05:15:50;101766.52;;;-1.46;82.89
77572;BME280;67214;47.454;18.966;2023-01-25T05:18:17;101766.95;;;-1.46;82.73
77572;BME280;67214;47.454;18.966;2023-01-25T05:20:45;101775.09;;;-1.28;81.99
77572;BME280;67214;47.454;18.966;2023-01-25T05:23:12;101773.03;;;-1.44;82.68
77572;BME280;67214;47.454;18.966;2023-01-25T05:25:40;101777.75;;;-1.36;83.02
77572;BME280;67214;47.454;18.966;2023-01-25T05:28:27;101775.13;;;-1.33;83.14
77572;BME280;67214;47.454;18.966;2023-01-25T05:30:54;101777.30;;;-1.31;83.16
77572;BME280;67214;47.454;18.966;2023-01-25T05:33:22;101766.42;;;-1.30;83.12
77572;BME280;67214;47.454;18.966;2023-01-25T05:35:49;101773.39;;;-1.31;83.18
77572;BME280;67214;47.454;18.966;2023-01-25T05:38:16;101775.09;;;-1.28;83.48
77572;BME280;67214;47.454;18.966;2023-01-25T05:40:44;101769.84;;;-1.19;83.80
77572;BME280;67214;47.454;18.966;2023-01-25T05:43:11;101763.77;;;-1.18;83.43
77572;BME280;67214;47.454;18.966;2023-01-25T05:45:39;101769.33;;;-1.07;83.36
77572;BME280;67214;47.454;18.966;2023-01-25T05:48:06;101774.53;;;-1.08;82.90
77572;BME280;67214;47.454;18.966;2023-01-25T05:50:34;101765.02;;;-1.14;83.10
77572;BME280;67214;47.454;18.966;2023-01-25T05:53:01;101751.13;;;-1.11;83.29
77572;BME280;67214;47.454;18.966;2023-01-25T05:55:28;101741.76;;;-0.81;81.95
77572;BME280;67214;47.454;18.966;2023-01-25T05:57:56;101753.20;;;-1.02;82.50
77572;BME280;67214;47.454;18.966;2023-01-25T06:00:23;101761.48;;;-1.02;83.15
77572;BME280;67214;47.454;18.966;2023-01-25T06:02:51;101763.06;;;-0.83;82.27
77572;BME280;67214;47.454;18.966;2023-01-25T06:05:18;101765.70;;;-0.89;82.76
77572;BME280;67214;47.454;18.966;2023-01-25T06:07:46;101770.80;;;-0.75;82.30
77572;BME280;67214;47.454;18.966;2023-01-25T06:10:13;101766.53;;;-0.85;83.05
77572;BME280;67214;47.454;18.966;2023-01-25T06:12:41;101763.96;;;-0.88;83.52
77572;BME280;67214;47.454;18.966;2023-01-25T06:15:09;101757.89;;;-0.86;83.74
77572;BME280;67214;47.454;18.966;2023-01-25T06:17:36;101767.00;;;-0.87;83.91
77572;BME280;67214;47.454;18.966;2023-01-25T06:20:04;101777.42;;;-0.86;83.98
77572;BME280;67214;47.454;18.966;2023-01-25T06:22:33;101768.73;;;-0.88;84.04
77572;BME280;67214;47.454;18.966;2023-01-25T06:25:00;101772.21;;;-0.86;83.94
77572;BME280;67214;47.454;18.966;2023-01-25T06:27:27;101777.78;;;-0.80;84.02
77572;BME280;67214;47.454;18.966;2023-01-25T06:29:55;101786.90;;;-0.79;83.61
77572;BME280;67214;47.454;18.966;2023-01-25T06:32:22;101779.05;;;-0.76;83.67
77572;BME280;67214;47.454;18.966;2023-01-25T06:34:51;101791.58;;;-0.68;83.47
77572;BME280;67214;47.454;18.966;2023-01-25T06:37:18;101789.77;;;-0.60;83.04
77572;BME280;67214;47.454;18.966;2023-01-25T06:39:47;101784.99;;;-0.59;83.23
77572;BME280;67214;47.454;18.966;2023-01-25T06:42:15;101788.83;;;-0.51;83.41
77572;BME280;67214;47.454;18.966;2023-01-25T06:44:42;101783.86;;;-0.32;82.79
77572;BME280;67214;47.454;18.966;2023-01-25T06:47:10;101783.25;;;-0.13;82.08
77572;BME280;67214;47.454;18.966;2023-01-25T06:49:38;101792.42;;;-0.19;82.51
77572;BME280;67214;47.454;18.966;2023-01-25T06:52:06;101782.86;;;-0.19;82.51
77572;BME280;67214;47.454;18.966;2023-01-25T06:54:33;101782.24;;;-0.02;81.91
77572;BME280;67214;47.454;18.966;2023-01-25T06:57:01;101785.63;;;0.08;81.58
77572;BME280;67214;47.454;18.966;2023-01-25T06:59:28;101790.41;;;0.07;82.20
77572;BME280;67214;47.454;18.966;2023-01-25T07:01:56;101777.81;;;0.05;82.74
77572;BME280;67214;47.454;18.966;2023-01-25T07:04:23;101784.77;;;0.06;82.87
77572;BME280;67214;47.454;18.966;2023-01-25T07:06:51;101787.27;;;0.14;83.00
77572;BME280;67214;47.454;18.966;2023-01-25T07:09:18;101786.80;;;0.17;83.19
77572;BME280;67214;47.454;18.966;2023-01-25T07:11:50;101778.86;;;0.28;83.03
77572;BME280;67214;47.454;18.966;2023-01-25T07:14:17;101797.95;;;0.30;82.83
77572;BME280;67214;47.454;18.966;2023-01-25T07:16:45;101779.64;;;0.34;82.99
77572;BME280;67214;47.454;18.966;2023-01-25T07:19:12;101787.40;;;0.40;82.94
77572;BME280;67214;47.454;18.966;2023-01-25T07:21:39;101787.70;;;0.49;82.96
77572;BME280;67214;47.454;18.966;2023-01-25T07:24:09;101775.02;;;0.55;82.78
77572;BME280;67214;47.454;18.966;2023-01-25T07:26:36;101781.00;;;0.61;83.17
77572;BME280;67214;47.454;18.966;2023-01-25T07:29:03;101781.91;;;0.60;83.20
77572;BME280;67214;47.454;18.966;2023-01-25T07:31:31;101777.83;;;0.71;83.02
77572;BME280;67214;47.454;18.966;2023-01-25T07:33:58;101776.85;;;0.78;83.04
77572;BME280;67214;47.454;18.966;2023-01-25T07:36:26;101781.06;;;0.89;82.72
77572;BME280;67214;47.454;18.966;2023-01-25T07:38:55;101784.48;;;0.93;82.91
77572;BME280;67214;47.454;18.966;2023-01-25T07:41:24;101781.77;;;0.99;82.80
77572;BME280;67214;47.454;18.966;2023-01-25T07:43:52;101785.18;;;1.04;82.75
77572;BME280;67214;47.454;18.966;2023-01-25T07:46:20;101785.78;;;1.21;82.40
77572;BME280;67214;47.454;18.966;2023-01-25T07:48:51;101779.56;;;1.28;82.21
77572;BME280;67214;47.454;18.966;2023-01-25T07:51:21;101778.92;;;1.41;82.04
77572;BME280;67214;47.454;18.966;2023-01-25T07:54:03;101773.93;;;1.51;82.05
77572;BME280;67214;47.454;18.966;2023-01-25T07:56:33;101779.05;;;1.59;81.96
77572;BME280;67214;47.454;18.966;2023-01-25T07:59:03;101768.89;;;1.66;82.08
77572;BME280;67214;47.454;18.966;2023-01-25T08:01:32;101777.38;;;1.78;81.71
77572;BME280;67214;47.454;18.966;2023-01-25T08:04:03;101779.00;;;1.84;81.03
77572;BME280;67214;47.454;18.966;2023-01-25T08:06:33;101779.26;;;1.94;80.71
77572;BME280;67214;47.454;18.966;2023-01-25T08:09:04;101782.95;;;2.06;80.18
77572;BME280;67214;47.454;18.966;2023-01-25T08:11:32;101777.27;;;2.07;79.97
77572;BME280;67214;47.454;18.966;2023-01-25T08:13:59;101777.54;;;2.15;79.20
77572;BME280;67214;47.454;18.966;2023-01-25T08:16:31;101778.25;;;2.23;78.90
77572;BME280;67214;47.454;18.966;2023-01-25T08:19:00;101782.71;;;2.39;78.07
77572;BME280;67214;47.454;18.966;2023-01-25T08:21:31;101776.54;;;2.42;77.85
77572;BME280;67214;47.454;18.966;2023-01-25T08:24:00;101778.69;;;2.44;78.00
77572;BME280;67214;47.454;18.966;2023-01-25T08:26:29;101773.90;;;2.43;77.83
77572;BME280;67214;47.454;18.966;2023-01-25T08:28:57;101780.39;;;2.45;77.97
77572;BME280;67214;47.454;18.966;2023-01-25T08:31:27;101779.44;;;2.49;77.86
77572;BME280;67214;47.454;18.966;2023-01-25T08:33:55;101775.85;;;2.53;77.84
77572;BME280;67214;47.454;18.966;2023-01-25T08:36:23;101770.94;;;2.58;77.94
77572;BME280;67214;47.454;18.966;2023-01-25T08:39:00;101767.36;;;2.62;77.15
77572;BME280;67214;47.454;18.966;2023-01-25T08:41:29;101766.11;;;2.61;76.99
77572;BME280;67214;47.454;18.966;2023-01-25T08:43:57;101762.47;;;2.66;77.18
77572;BME280;67214;47.454;18.966;2023-01-25T08:46:27;101765.44;;;2.70;76.41
77572;BME280;67214;47.454;18.966;2023-01-25T08:48:56;101764.73;;;2.81;76.69
77572;BME280;67214;47.454;18.966;2023-01-25T08:51:24;101756.83;;;2.85;76.22
77572;BME280;67214;47.454;18.966;2023-01-25T08:53:52;101757.81;;;2.79;75.98
77572;BME280;67214;47.454;18.966;2023-01-25T08:56:25;101765.75;;;2.76;76.64
77572;BME280;67214;47.454;18.966;2023-01-25T08:58:50;101756.95;;;2.78;76.14
77572;BME280;67214;47.454;18.966;2023-01-25T09:01:18;101755.28;;;2.76;76.32
77572;BME280;67214;47.454;18.966;2023-01-25T09:03:48;101755.70;;;2.77;76.31
77572;BME280;67214;47.454;18.966;2023-01-25T09:06:16;101753.78;;;2.84;76.92
77572;BME280;67214;47.454;18.966;2023-01-25T09:08:45;101748.63;;;2.80;76.46
77572;BME280;67214;47.454;18.966;2023-01-25T09:11:16;101752.66;;;2.94;74.78
77572;BME280;67214;47.454;18.966;2023-01-25T09:13:43;101752.30;;;2.91;75.50
77572;BME280;67214;47.454;18.966;2023-01-25T09:16:13;101752.19;;;2.96;75.37
77572;BME280;67214;47.454;18.966;2023-01-25T09:18:43;101746.67;;;3.06;75.99
77572;BME280;67214;47.454;18.966;2023-01-25T09:21:12;101741.94;;;3.04;74.91
77572;BME280;67214;47.454;18.966;2023-01-25T09:23:41;101743.67;;;3.05;75.27
77572;BME280;67214;47.454;18.966;2023-01-25T09:26:10;101742.83;;;3.03;75.07
77572;BME280;67214;47.454;18.966;2023-01-25T09:28:41;101739.73;;;3.05;75.24
77572;BME280;67214;47.454;18.966;2023-01-25T09:31:09;101738.22;;;2.95;74.79
77572;BME280;67214;47.454;18.966;2023-01-25T09:33:38;101740.84;;;2.95;74.98
77572;BME280;67214;47.454;18.966;2023-01-25T09:36:07;101724.78;;;2.91;74.74
77572;BME280;67214;47.454;18.966;2023-01-25T09:38:35;101728.25;;;2.93;75.07
77572;BME280;67214;47.454;18.966;2023-01-25T09:41:24;101730.78;;;2.96;75.20
77572;BME280;67214;47.454;18.966;2023-01-25T09:47:15;101722.03;;;2.97;74.44
77572;BME280;67214;47.454;18.966;2023-01-25T09:55:21;101708.66;;;3.08;74.39
77572;BME280;67214;47.454;18.966;2023-01-25T09:57:50;101708.67;;;3.06;74.68
77572;BME280;67214;47.454;18.966;2023-01-25T10:00:23;101711.94;;;3.16;74.91
77572;BME280;67214;47.454;18.966;2023-01-25T10:05:44;101699.95;;;3.23;74.00
77572;BME280;67214;47.454;18.966;2023-01-25T10:08:41;101703.98;;;3.37;73.91
77572;BME280;67214;47.454;18.966;2023-01-25T10:13:44;101689.65;;;3.34;73.11
77572;BME280;67214;47.454;18.966;2023-01-25T10:16:24;101688.70;;;3.36;73.30
77572;BME280;67214;47.454;18.966;2023-01-25T10:18:50;101678.89;;;3.43;73.03
77572;BME280;67214;47.454;18.966;2023-01-25T10:21:22;101672.87;;;3.55;73.24
77572;BME280;67214;47.454;18.966;2023-01-25T10:26:36;101669.34;;;3.87;72.44
77572;BME280;67214;47.454;18.966;2023-01-25T10:29:24;101669.17;;;3.93;71.88
77572;BME280;67214;47.454;18.966;2023-01-25T10:31:54;101668.13;;;3.84;71.43
77572;BME280;67214;47.454;18.966;2023-01-25T10:34:24;101672.44;;;3.87;71.85
77572;BME280;67214;47.454;18.966;2023-01-25T10:36:57;101665.30;;;3.75;71.80
77572;BME280;67214;47.454;18.966;2023-01-25T10:39:25;101658.16;;;3.66;71.54
77572;BME280;67214;47.454;18.966;2023-01-25T10:41:58;101660.25;;;3.69;71.97
77572;BME280;67214;47.454;18.966;2023-01-25T10:44:27;101660.19;;;3.71;71.46
77572;BME280;67214;47.454;18.966;2023-01-25T10:47:15;101647.39;;;3.75;72.17
77572;BME280;67214;47.454;18.966;2023-01-25T10:49:51;101644.53;;;3.68;72.00
77572;BME280;67214;47.454;18.966;2023-01-25T10:52:21;101643.96;;;3.73;72.04
77572;BME280;67214;47.454;18.966;2023-01-25T10:57:37;101638.71;;;3.58;72.78
77572;BME280;67214;47.454;18.966;2023-01-25T11:00:06;101642.70;;;3.55;72.63
77572;BME280;67214;47.454;18.966;2023-01-25T11:02:46;101642.70;;;3.55;72.55
77572;BME280;67214;47.454;18.966;2023-01-25T11:05:32;101639.08;;;3.45;72.55
77572;BME280;67214;47.454;18.966;2023-01-25T11:08:20;101621.53;;;3.47;72.60
77572;BME280;67214;47.454;18.966;2023-01-25T11:10:45;101631.22;;;3.45;72.40
77572;BME280;67214;47.454;18.966;2023-01-25T11:13:17;101623.78;;;3.30;72.84
77572;BME280;67214;47.454;18.966;2023-01-25T11:15:51;101619.45;;;3.43;72.81
77572;BME280;67214;47.454;18.966;2023-01-25T11:21:20;101606.20;;;3.48;72.83
77572;BME280;67214;47.454;18.966;2023-01-25T11:26:38;101611.97;;;3.46;72.23
77572;BME280;67214;47.454;18.966;2023-01-25T11:29:17;101593.58;;;3.62;71.94
77572;BME280;67214;47.454;18.966;2023-01-25T11:31:53;101588.48;;;3.56;72.20
77572;BME280;67214;47.454;18.966;2023-01-25T11:34:27;101591.50;;;3.58;71.93
77572;BME280;67214;47.454;18.966;2023-01-25T11:39:52;101592.94;;;3.54;72.20
77572;BME280;67214;47.454;18.966;2023-01-25T11:59:03;101535.67;;;3.83;71.55
77572;BME280;67214;47.454;18.966;2023-01-25T12:01:57;101534.67;;;3.72;71.41
77572;BME280;67214;47.454;18.966;2023-01-25T12:07:07;101514.20;;;3.83;71.01
77572;BME280;67214;47.454;18.966;2023-01-25T12:09:45;101513.06;;;3.92;71.10
77572;BME280;67214;47.454;18.966;2023-01-25T12:12:40;101507.59;;;3.99;70.82
77572;BME280;67214;47.454;18.966;2023-01-25T12:20:51;101503.84;;;3.93;70.50
77572;BME280;67214;47.454;18.966;2023-01-25T12:34:29;101489.16;;;4.01;70.23
77572;BME280;67214;47.454;18.966;2023-01-25T12:36:53;101495.53;;;4.07;70.50
77572;BME280;67214;47.454;18.966;2023-01-25T12:39:35;101489.05;;;4.04;70.06
77572;BME280;67214;47.454;18.966;2023-01-25T12:44:51;101486.24;;;4.10;69.86
77572;BME280;67214;47.454;18.966;2023-01-25T12:50:16;101468.58;;;4.15;70.54
77572;BME280;67214;47.454;18.966;2023-01-25T12:52:48;101481.03;;;4.08;70.86
77572;BME280;67214;47.454;18.966;2023-01-25T12:55:18;101477.20;;;4.05;70.49
77572;BME280;67214;47.454;18.966;2023-01-25T13:08:53;101466.22;;;4.07;69.97
77572;BME280;67214;47.454;18.966;2023-01-25T13:11:32;101465.43;;;4.04;70.53
77572;BME280;67214;47.454;18.966;2023-01-25T13:16:51;101464.03;;;4.07;70.67
77572;BME280;67214;47.454;18.966;2023-01-25T13:21:59;101443.30;;;3.99;70.23
77572;BME280;67214;47.454;18.966;2023-01-25T13:24:31;101456.05;;;4.10;70.07
77572;BME280;67214;47.454;18.966;2023-01-25T13:27:02;101453.99;;;4.06;70.52
77572;BME280;67214;47.454;18.966;2023-01-25T13:32:13;101444.88;;;4.16;69.98
77572;BME280;67214;47.454;18.966;2023-01-25T13:37:29;101444.99;;;4.13;70.30
77572;BME280;67214;47.454;18.966;2023-01-25T13:42:59;101440.64;;;4.12;70.06
77572;BME280;67214;47.454;18.966;2023-01-25T13:45:28;101429.09;;;4.18;70.29
77572;BME280;67214;47.454;18.966;2023-01-25T13:48:13;101428.80;;;4.14;70.70
77572;BME280;67214;47.454;18.966;2023-01-25T13:50:56;101430.55;;;4.13;70.40
77572;BME280;67214;47.454;18.966;2023-01-25T13:53:26;101431.08;;;4.11;69.73
77572;BME280;67214;47.454;18.966;2023-01-25T13:55:58;101423.20;;;4.11;70.04
77572;BME280;67214;47.454;18.966;2023-01-25T13:58:28;101428.75;;;4.02;70.35
77572;BME280;67214;47.454;18.966;2023-01-25T14:01:02;101430.55;;;4.00;70.35
77572;BME280;67214;47.454;18.966;2023-01-25T14:03:39;101426.58;;;4.02;70.42
77572;BME280;67214;47.454;18.966;2023-01-25T14:06:05;101414.31;;;4.02;70.52
77572;BME280;67214;47.454;18.966;2023-01-25T14:08:33;101427.89;;;4.02;70.34
77572;BME280;67214;47.454;18.966;2023-01-25T14:11:01;101419.61;;;4.01;70.19
77572;BME280;67214;47.454;18.966;2023-01-25T14:13:28;101423.09;;;4.01;70.18
77572;BME280;67214;47.454;18.966;2023-01-25T14:15:58;101412.30;;;3.97;70.50
77572;BME280;67214;47.454;18.966;2023-01-25T14:18:33;101419.56;;;4.02;70.41
77572;BME280;67214;47.454;18.966;2023-01-25T14:21:18;101418.25;;;4.02;70.37
77572;BME280;67214;47.454;18.966;2023-01-25T14:23:47;101426.62;;;4.00;70.76
77572;BME280;67214;47.454;18.966;2023-01-25T14:28:59;101421.52;;;3.96;70.80
77572;BME280;67214;47.454;18.966;2023-01-25T14:31:26;101423.53;;;3.88;70.57
77572;BME280;67214;47.454;18.966;2023-01-25T14:33:54;101422.74;;;3.86;71.24
77572;BME280;67214;47.454;18.966;2023-01-25T14:36:29;101418.12;;;3.79;70.59